sensor_id;sensor_type;location;lat;lon;timestamp;P1;durP1;ratioP1;P2;durP2;ratioP2
51692;SDS011;37777;53.066;21.638;2023-08-24T00:03:53;15.90;;;14.63;;
51692;SDS011;37777;53.066;21.638;2023-08-24T00:10:55;15.80;;;14.60;;
51692;SDS011;37777;53.066;21.638;2023-08-24T00:17:56;15.88;;;14.68;;
51692;SDS011;37777;53.066;21.638;2023-08-24T00:24:58;16.30;;;14.73;;
51692;SDS011;37777;53.066;21.638;2023-08-24T00:31:59;15.57;;;14.30;;
51692;SDS011;37777;53.066;21.638;2023-08-24T00:39:01;15.52;;;14.18;;
51692;SDS011;37777;53.066;21.638;2023-08-24T00:46:02;15.50;;;14.20;;
51692;SDS011;37777;53.066;21.638;2023-08-24T00:53:05;16.55;;;15.23;;
51692;SDS011;37777;53.066;21.638;2023-08-24T01:00:06;15.52;;;14.32;;
51692;SDS011;37777;53.066;21.638;2023-08-24T01:07:11;15.07;;;13.88;;
51692;SDS011;37777;53.066;21.638;2023-08-24T01:21:34;15.25;;;14.05;;
51692;SDS011;37777;53.066;21.638;2023-08-24T01:28:35;16.55;;;14.82;;
51692;SDS011;37777;53.066;21.638;2023-08-24T01:35:37;16.15;;;14.82;;
51692;SDS011;37777;53.066;21.638;2023-08-24T01:49:52;15.82;;;14.63;;
51692;SDS011;37777;53.066;21.638;2023-08-24T01:56:54;16.10;;;14.90;;
51692;SDS011;37777;53.066;21.638;2023-08-24T02:03:55;16.17;;;14.88;;
51692;SDS011;37777;53.066;21.638;2023-08-24T02:10:57;16.02;;;14.43;;
51692;SDS011;37777;53.066;21.638;2023-08-24T02:17:59;15.57;;;14.32;;
51692;SDS011;37777;53.066;21.638;2023-08-24T02:25:00;16.15;;;14.57;;
51692;SDS011;37777;53.066;21.638;2023-08-24T02:32:06;15.07;;;13.77;;
51692;SDS011;37777;53.066;21.638;2023-08-24T02:39:07;16.42;;;14.93;;
51692;SDS011;37777;53.066;21.638;2023-08-24T02:46:09;15.73;;;14.43;;
51692;SDS011;37777;53.066;21.638;2023-08-24T02:53:11;16.40;;;15.00;;
51692;SDS011;37777;53.066;21.638;2023-08-24T03:00:12;16.52;;;15.07;;
51692;SDS011;37777;53.066;21.638;2023-08-24T03:07:15;16.38;;;14.70;;
51692;SDS011;37777;53.066;21.638;2023-08-24T03:14:16;15.45;;;14.35;;
51692;SDS011;37777;53.066;21.638;2023-08-24T03:21:20;15.82;;;14.52;;
51692;SDS011;37777;53.066;21.638;2023-08-24T03:28:21;16.08;;;14.48;;
51692;SDS011;37777;53.066;21.638;2023-08-24T03:35:23;15.70;;;14.20;;
51692;SDS011;37777;53.066;21.638;2023-08-24T03:42:24;15.70;;;14.38;;
51692;SDS011;37777;53.066;21.638;2023-08-24T03:49:26;15.10;;;13.95;;
51692;SDS011;37777;53.066;21.638;2023-08-24T03:56:27;16.40;;;14.95;;
51692;SDS011;37777;53.066;21.638;2023-08-24T04:03:29;16.35;;;14.63;;
51692;SDS011;37777;53.066;21.638;2023-08-24T04:10:30;17.95;;;15.77;;
51692;SDS011;37777;53.066;21.638;2023-08-24T04:17:32;17.85;;;15.95;;
51692;SDS011;37777;53.066;21.638;2023-08-24T04:24:33;22.75;;;17.35;;
51692;SDS011;37777;53.066;21.638;2023-08-24T04:31:35;19.23;;;17.52;;
51692;SDS011;37777;53.066;21.638;2023-08-24T04:38:38;18.10;;;16.30;;
51692;SDS011;37777;53.066;21.638;2023-08-24T04:45:40;18.83;;;17.20;;
51692;SDS011;37777;53.066;21.638;2023-08-24T04:52:41;18.73;;;16.48;;
51692;SDS011;37777;53.066;21.638;2023-08-24T04:59:42;19.58;;;16.65;;
51692;SDS011;37777;53.066;21.638;2023-08-24T05:06:44;18.70;;;17.00;;
51692;SDS011;37777;53.066;21.638;2023-08-24T05:13:46;23.17;;;18.17;;
51692;SDS011;37777;53.066;21.638;2023-08-24T05:20:47;18.52;;;16.88;;
51692;SDS011;37777;53.066;21.638;2023-08-24T05:27:49;21.70;;;16.98;;
51692;SDS011;37777;53.066;21.638;2023-08-24T05:34:51;19.98;;;18.17;;
51692;SDS011;37777;53.066;21.638;2023-08-24T05:41:53;20.05;;;17.83;;
51692;SDS011;37777;53.066;21.638;2023-08-24T05:48:55;19.85;;;17.95;;
51692;SDS011;37777;53.066;21.638;2023-08-24T05:55:59;20.58;;;18.45;;
51692;SDS011;37777;53.066;21.638;2023-08-24T06:03:00;20.15;;;18.17;;
51692;SDS011;37777;53.066;21.638;2023-08-24T06:10:02;19.35;;;17.27;;
51692;SDS011;37777;53.066;21.638;2023-08-24T06:17:04;19.77;;;17.33;;
51692;SDS011;37777;53.066;21.638;2023-08-24T06:24:05;19.63;;;17.67;;
51692;SDS011;37777;53.066;21.638;2023-08-24T06:31:07;18.95;;;17.17;;
51692;SDS011;37777;53.066;21.638;2023-08-24T06:38:11;19.08;;;17.05;;
51692;SDS011;37777;53.066;21.638;2023-08-24T16:49:36;18.15;;;16.38;;
51692;SDS011;37777;53.066;21.638;2023-08-24T16:56:37;17.10;;;15.70;;
51692;SDS011;37777;53.066;21.638;2023-08-24T17:03:41;16.98;;;15.35;;
51692;SDS011;37777;53.066;21.638;2023-08-24T17:10:43;15.40;;;14.20;;
51692;SDS011;37777;53.066;21.638;2023-08-24T17:17:44;15.68;;;14.38;;
51692;SDS011;37777;53.066;21.638;2023-08-24T17:24:46;15.35;;;14.25;;
51692;SDS011;37777;53.066;21.638;2023-08-24T17:31:48;15.73;;;14.15;;
51692;SDS011;37777;53.066;21.638;2023-08-24T17:38:49;15.00;;;13.90;;
51692;SDS011;37777;53.066;21.638;2023-08-24T17:46:07;15.25;;;14.02;;
51692;SDS011;37777;53.066;21.638;2023-08-24T17:53:09;15.55;;;14.20;;
51692;SDS011;37777;53.066;21.638;2023-08-24T18:00:11;16.65;;;14.10;;
51692;SDS011;37777;53.066;21.638;2023-08-24T18:07:13;15.13;;;13.73;;
51692;SDS011;37777;53.066;21.638;2023-08-24T18:14:14;15.00;;;13.82;;
51692;SDS011;37777;53.066;21.638;2023-08-24T18:21:16;14.98;;;13.75;;
51692;SDS011;37777;53.066;21.638;2023-08-24T18:28:17;18.35;;;13.45;;
51692;SDS011;37777;53.066;21.638;2023-08-24T18:35:18;15.43;;;14.05;;
51692;SDS011;37777;53.066;21.638;2023-08-24T18:42:20;15.43;;;13.80;;
51692;SDS011;37777;53.066;21.638;2023-08-24T18:49:22;14.98;;;13.45;;
51692;SDS011;37777;53.066;21.638;2023-08-24T18:56:23;15.73;;;14.52;;
51692;SDS011;37777;53.066;21.638;2023-08-24T19:03:25;14.90;;;13.60;;
51692;SDS011;37777;53.066;21.638;2023-08-24T19:10:26;15.40;;;14.00;;
51692;SDS011;37777;53.066;21.638;2023-08-24T19:17:28;15.15;;;13.93;;
51692;SDS011;37777;53.066;21.638;2023-08-24T19:24:29;21.98;;;14.38;;
51692;SDS011;37777;53.066;21.638;2023-08-24T19:31:31;15.77;;;14.25;;
51692;SDS011;37777;53.066;21.638;2023-08-24T19:38:32;16.63;;;14.45;;
51692;SDS011;37777;53.066;21.638;2023-08-24T19:45:37;15.73;;;14.25;;
51692;SDS011;37777;53.066;21.638;2023-08-24T19:52:39;18.92;;;14.60;;
51692;SDS011;37777;53.066;21.638;2023-08-24T19:59:43;24.55;;;15.40;;
51692;SDS011;37777;53.066;21.638;2023-08-24T20:06:45;18.27;;;15.90;;
51692;SDS011;37777;53.066;21.638;2023-08-24T20:13:46;17.52;;;15.40;;
51692;SDS011;37777;53.066;21.638;2023-08-24T20:20:51;18.67;;;14.88;;
51692;SDS011;37777;53.066;21.638;2023-08-24T20:27:53;24.25;;;14.82;;
51692;SDS011;37777;53.066;21.638;2023-08-24T20:34:55;16.88;;;15.23;;
51692;SDS011;37777;53.066;21.638;2023-08-24T20:42:16;20.15;;;15.77;;
51692;SDS011;37777;53.066;21.638;2023-08-24T20:49:23;16.73;;;15.00;;
51692;SDS011;37777;53.066;21.638;2023-08-24T20:56:25;29.40;;;16.42;;
51692;SDS011;37777;53.066;21.638;2023-08-24T21:03:26;18.75;;;16.08;;
51692;SDS011;37777;53.066;21.638;2023-08-24T21:10:28;19.30;;;16.23;;
51692;SDS011;37777;53.066;21.638;2023-08-24T21:17:30;21.50;;;16.27;;
51692;SDS011;37777;53.066;21.638;2023-08-24T21:24:31;31.73;;;16.13;;
51692;SDS011;37777;53.066;21.638;2023-08-24T21:31:33;18.50;;;16.02;;
51692;SDS011;37777;53.066;21.638;2023-08-24T21:38:34;18.25;;;16.55;;
51692;SDS011;37777;53.066;21.638;2023-08-24T21:45:38;19.13;;;16.08;;
51692;SDS011;37777;53.066;21.638;2023-08-24T21:52:40;17.38;;;15.93;;
51692;SDS011;37777;53.066;21.638;2023-08-24T21:59:41;20.05;;;16.60;;
51692;SDS011;37777;53.066;21.638;2023-08-24T22:06:44;18.27;;;16.55;;
51692;SDS011;37777;53.066;21.638;2023-08-24T22:13:46;17.75;;;16.25;;
51692;SDS011;37777;53.066;21.638;2023-08-24T22:20:47;18.92;;;17.23;;
51692;SDS011;37777;53.066;21.638;2023-08-24T22:27:50;17.90;;;16.20;;
51692;SDS011;37777;53.066;21.638;2023-08-24T22:34:52;24.08;;;17.02;;
51692;SDS011;37777;53.066;21.638;2023-08-24T22:41:53;19.15;;;17.25;;
51692;SDS011;37777;53.066;21.638;2023-08-24T22:48:54;19.85;;;17.23;;
51692;SDS011;37777;53.066;21.638;2023-08-24T22:55:56;17.65;;;16.15;;
51692;SDS011;37777;53.066;21.638;2023-08-24T23:02:57;18.20;;;16.60;;
51692;SDS011;37777;53.066;21.638;2023-08-24T23:09:59;18.45;;;16.70;;
51692;SDS011;37777;53.066;21.638;2023-08-24T23:17:01;19.58;;;17.80;;
51692;SDS011;37777;53.066;21.638;2023-08-24T23:24:03;19.48;;;17.70;;
51692;SDS011;37777;53.066;21.638;2023-08-24T23:31:25;18.10;;;16.38;;
51692;SDS011;37777;53.066;21.638;2023-08-24T23:38:27;19.13;;;17.05;;
51692;SDS011;37777;53.066;21.638;2023-08-24T23:45:28;20.02;;;18.00;;
51692;SDS011;37777;53.066;21.638;2023-08-24T23:52:32;19.45;;;17.27;;
51692;SDS011;37777;53.066;21.638;2023-08-24T23:59:34;18.77;;;17.10;;
